Weather observations for the past three days for
Jackson County Airport - Reynolds Field
Imperial (Metric)
Date Time (edt) Wind (mph) Vis. (mi.) Weather Sky Cond. Temperature (ºF) Relative Humidity Wind Chill (°F) Heat Index (°F) Pressure Precipitation (in)
Air Dwpt 6 hour altimeter (in) sea level (mb) 1 hr 3 hr 6 hr
Max. Min.
04 07:56 S 8 10.00 Mostly Cloudy SCT038 BKN075 69.1 66.9 71.1 66 93% 29.96 1014.2 0.03 1.95
04 06:56 S 12 1.25 Thunderstorm Heavy Rain Fog/Mist OVC041 69.1 68 96% 29.99 1015.0 1.86
04 05:56 NW 16 G 28 5.00 Thunderstorm Rain Fog/Mist FEW013 BKN039 BKN060 69.1 66.9 93% 29.99 1015.0 0.06
04 04:56 NE 3 10.00 A Few Clouds FEW045 66.9 66 97% 29.96 1014.1
04 03:56 Calm 10.00 Fair CLR 66 66 100% 29.97 1014.5
04 02:56 Calm 10.00 Fair CLR 66.9 66 97% 29.99 1014.8
04 01:56 Calm 10.00 Fair CLR 68 66.9 72 66 96% 30 1015.1
04 00:56 Calm 10.00 Mostly Cloudy BKN090 BKN110 68 66.9 96% 30 1015.3
03 23:56 Calm 10.00 Partly Cloudy SCT100 68 66.9 96% 30 1015.4
03 22:56 Calm 10.00 Mostly Cloudy BKN095 66.9 66.9 100% 30 1015.3
03 21:56 Calm 8.00 Fair CLR 66.9 66.9 100% 30 1015.4
03 20:56 Calm 10.00 Mostly Cloudy SCT050 BKN110 69.1 66.9 93% 30 1015.3
03 19:56 S 5 10.00 Mostly Cloudy SCT050 BKN110 72 68 87.1 70 87% 29.98 1014.6 0.2
03 18:56 E 5 10.00 Mostly Cloudy SCT050 BKN110 73.9 68 82% 29.97 1014.4
03 17:56 Vrbl 3 10.00 Mostly Cloudy BKN046 BKN075 72 69.1 91% 29.99 1015.0
03 16:56 N 6 10.00 Partly Cloudy SCT110 73 69.1 87% 30.01 1015.5 0.14 0.2
03 14:56 Calm 3.00 Thunderstorm Rain FEW038 SCT045 BKN095 82 75 79% 89 29.94 1013.1 0.06
03 13:56 S 8 10.00 Partly Cloudy SCT100 86 75.9 87.1 73.9 72% 96 29.96 1013.7 0.01
03 12:56 S 8 10.00 Fair CLR 84.9 73.9 70% 92 29.95 1013.3
03 11:56 Calm 10.00 A Few Clouds FEW100 80.1 73 79% 84 29.98 1014.5
03 10:56 S 5 10.00 A Few Clouds FEW085 79 73 82% 82 29.98 1014.4 0.01
03 09:56 Vrbl 5 10.00 Thunderstorm in Vicinity FEW019 FEW038 SCT110 73.9 71.1 91% 29.99 1014.8 0.01
03 08:56 SW 3 10.00 Fair CLR 78.1 73.9 87% 81 29.99 1014.6
03 07:56 Calm 10.00 Fair CLR 73.9 73 77 71.1 97% 29.98 1014.5
03 06:56 SW 3 5.00 Fog/Mist CLR 72 72 100% 29.97 1014.2
03 05:56 Calm 0.50 Fog CLR 72 72 100% 29.97 1013.8
03 04:56 Calm 4.00 Fog/Mist CLR 73 73 100% 29.96 1013.8
03 03:56 Calm 10.00 Fair CLR 75 73.9 96% 73 29.96 1013.7
03 02:56 Calm 10.00 Mostly Cloudy BKN100 75.9 73.9 94% 75 29.96 1013.6
03 01:56 SW 3 10.00 A Few Clouds FEW110 75 73 82.9 75 94% 73 29.96 1013.5
03 00:56 Calm 10.00 Fair CLR 75.9 73.9 94% 75 29.96 1013.5
02 23:56 SW 7 10.00 Fair CLR 79 73.9 85% 83 29.94 1013.0
02 22:56 SW 7 10.00 Fair CLR 78.1 73.9 87% 81 29.93 1012.5
02 21:56 SW 3 10.00 Fair CLR 75.9 73 91% 76 29.94 1013.2
02 20:56 SW 3 10.00 Fair CLR 78.1 73 85% 81 29.94 1013.0
02 19:56 SW 3 10.00 Fair CLR 82.9 73 91 82.9 72% 89 29.93 1012.6
02 18:56 SW 9 10.00 Fair CLR 88 71.1 57% 94 29.92 1012.4
02 17:56 SW 9 G 21 10.00 Fair CLR 90 71.1 54% 96 29.93 1012.5
02 16:56 SW 12 10.00 Fair CLR 89.1 72 57% 96 29.93 1012.8
02 15:56 SW 10 G 20 10.00 Fair CLR 90 72 56% 97 29.97 1013.8
02 14:56 S 13 10.00 Fair CLR 90 72 56% 97 29.98 1014.1
02 13:56 SW 8 10.00 Fair CLR 88 72 89.1 73.9 59% 95 29.98 1014.6
02 12:56 SW 12 10.00 Fair CLR 88 73 61% 96 30.01 1015.3
02 11:56 SW 7 10.00 Fair CLR 86 72 63% 92 30 1015.1
02 10:56 SW 10 10.00 A Few Clouds FEW080 84.9 73 68% 92 30.01 1015.3
02 09:56 SW 7 10.00 Fair CLR 81 73 77% 86 30 1015.1
02 08:56 SW 6 10.00 Fair CLR 78.1 73 85% 81 30.01 1015.6
02 07:56 Calm 10.00 Fair CLR 73.9 72 77 71.1 94% 30 1015.3
02 06:56 Calm 6.00 Fog/Mist CLR 71.1 71.1 100% 30.01 1015.4
02 05:56 SW 5 8.00 Fair CLR 73 72 96% 30 1015.0
02 04:56 SW 5 9.00 Fair CLR 73 72 96% 29.98 1014.6
02 03:56 SW 5 10.00 A Few Clouds FEW120 75 73.9 96% 73 29.98 1014.5
02 02:56 SW 10 10.00 Fair CLR 77 73.9 90% 78 29.97 1014.1
02 01:56 SW 5 9.00 Fair CLR 72 72 77 71.1 100% 29.98 1014.4
02 00:56 Calm 9.00 A Few Clouds FEW120 71.1 71.1 100% 29.99 1014.9
01 23:56 SE 5 10.00 Mostly Cloudy BKN120 73.9 72 94% 29.98 1014.6
01 22:56 Calm 10.00 Fair CLR 73 71.1 94% 29.99 1014.7
01 21:56 S 3 10.00 Fair CLR 75 71.1 88% 75 29.98 1014.5
01 20:56 S 5 10.00 Fair CLR 75.9 70 82% 77 29.98 1014.7
01 19:56 S 5 10.00 A Few Clouds FEW110 77 71.1 88 77 82% 79 29.98 1014.7
01 18:56 SW 5 10.00 Fair CLR 80.1 72 76% 84 30.01 1015.6
01 17:56 W 12 10.00 Fair CLR 82.9 73 72% 89 30 1015.1
01 16:56 SW 10 10.00 Fair CLR 84 73.9 72% 91 29.97 1014.3
01 15:56 SW 13 G 22 10.00 A Few Clouds FEW032 84.9 75 72% 93 29.98 1014.6
01 14:56 S 7 10.00 Fair CLR 87.1 75.9 70% 98 29.99 1014.9
01 13:56 SW 10 G 17 10.00 Fair CLR 87.1 75 87.1 71.1 67% 97 29.99 1014.7
01 12:56 S 6 10.00 Fair CLR 84.9 75.9 75% 94 29.99 1014.7
01 11:56 SW 7 10.00 Fair CLR 82.9 73 72% 89 30 1015.0
01 10:56 SW 5 10.00 Fair CLR 81 72 74% 85 30 1015.1
01 09:56 SW 6 10.00 Fair CLR 77 70 79% 79 30.01 1015.4
01 08:56 SW 7 10.00 Fair CLR 73.9 69.1 85% 30 1015.4
Date Time (edt) Wind (mph) Vis. (mi.) Weather Sky Cond. Air Dwpt Max. Min. Relative Humidity Wind Chill (°F) Heat Index (°F) altimeter (in) sea level (mb) 1 hr 3 hr 6 hr
6 hour
Temperature (ºF) Pressure Precipitation (in)